Time;durP1;ratioP1;P1;durP2;ratioP2;P2;SDS_P1;SDS_P2;PMS_P1;PMS_P2;Temp;Humidity;BMP_temperature;BMP_pressure;BME280_temperature;BME280_humidity;BME280_pressure;Samples;Min_cycle;Max_cycle;Signal;HPM_P1;HPM_P2
2022/06/06 00:02:30;;;;;;;6.07;4.15;;;10.10;99.90;;;;;;5054374;28;20025;-94
2022/06/06 00:04:57;;;;;;;5.88;4.28;;;10.10;99.90;;;;;;5046594;28;20040;-94
2022/06/06 00:07:23;;;;;;;6.47;4.53;;;10.10;99.90;;;;;;5038130;28;20022;-95
2022/06/06 00:09:52;;;;;;;7.43;4.32;;;10.00;99.90;;;;;;5039278;28;20043;-93
2022/06/06 00:12:20;;;;;;;6.55;4.00;;;10.00;99.90;;;;;;5038416;28;20021;-93
2022/06/06 00:14:47;;;;;;;5.35;2.97;;;10.00;99.90;;;;;;5047891;28;20021;-95
2022/06/06 00:17:13;;;;;;;4.45;2.80;;;10.00;99.90;;;;;;5047974;28;20097;-93
2022/06/06 00:19:40;;;;;;;7.40;3.50;;;10.00;99.90;;;;;;5038076;28;20056;-94
2022/06/06 00:22:07;;;;;;;3.65;2.72;;;10.10;99.90;;;;;;5039861;28;20028;-94
2022/06/06 00:24:33;;;;;;;5.35;2.92;;;10.10;99.90;;;;;;5050651;28;20029;-93
2022/06/06 00:26:59;;;;;;;3.17;2.60;;;10.10;99.90;;;;;;5054658;28;20120;-92
2022/06/06 00:29:27;;;;;;;2.80;2.50;;;10.20;99.90;;;;;;5053463;28;20032;-92
2022/06/06 00:34:49;;;;;;;4.32;2.80;;;10.20;99.90;;;;;;5076731;28;20096;-90
2022/06/06 00:37:22;;;;;;;2.75;2.40;;;10.20;99.90;;;;;;5057840;28;20029;-92
2022/06/06 00:39:48;;;;;;;3.20;2.50;;;10.30;99.90;;;;;;5051403;28;20038;-93
2022/06/06 00:42:24;;;;;;;4.03;2.70;;;10.30;99.90;;;;;;5054105;28;20219;-93
2022/06/06 00:45:12;;;;;;;3.42;2.60;;;10.20;99.90;;;;;;5047489;28;20025;-92
2022/06/06 00:47:39;;;;;;;2.45;2.25;;;10.20;99.90;;;;;;5042280;28;20056;-93
2022/06/06 00:50:12;;;;;;;5.03;2.70;;;10.20;99.90;;;;;;5044509;28;20026;-95
2022/06/06 00:52:40;;;;;;;3.05;2.55;;;10.20;99.90;;;;;;5054568;28;20017;-92
2022/06/06 00:55:13;;;;;;;3.63;2.78;;;10.20;99.90;;;;;;5057071;28;20040;-92
2022/06/06 00:57:47;;;;;;;4.68;3.00;;;10.20;99.90;;;;;;5055107;28;20032;-95
2022/06/06 01:00:16;;;;;;;4.82;2.60;;;10.10;99.90;;;;;;5044166;28;20030;-94
2022/06/06 01:02:45;;;;;;;6.85;3.10;;;10.10;99.90;;;;;;5046204;28;20022;-93
2022/06/06 01:05:11;;;;;;;4.10;2.83;;;10.10;99.90;;;;;;5049020;28;20025;-94
2022/06/06 01:07:37;;;;;;;5.20;3.03;;;10.10;99.90;;;;;;5051239;28;20036;-93
2022/06/06 01:10:04;;;;;;;3.72;3.08;;;10.00;99.90;;;;;;5053073;28;20029;-95
2022/06/06 01:12:31;;;;;;;5.32;2.75;;;10.00;99.90;;;;;;5052390;28;20013;-94
2022/06/06 01:15:02;;;;;;;4.55;3.42;;;10.00;99.90;;;;;;5052395;28;20021;-93
2022/06/06 01:17:44;;;;;;;5.45;3.53;;;10.00;99.90;;;;;;5049346;28;20052;-95
2022/06/06 01:20:53;;;;;;;3.47;2.50;;;10.00;99.90;;;;;;5050309;28;20040;-94
2022/06/06 01:23:37;;;;;;;4.25;3.00;;;10.00;99.90;;;;;;5051767;28;20091;-93
2022/06/06 01:26:25;;;;;;;4.60;2.70;;;10.00;99.90;;;;;;5056059;28;20029;-94
2022/06/06 01:29:13;;;;;;;5.05;2.45;;;10.00;99.90;;;;;;5056542;28;20025;-94
2022/06/06 01:31:39;;;;;;;5.13;2.65;;;9.90;99.90;;;;;;5053414;28;20025;-93
2022/06/06 01:34:09;;;;;;;3.38;2.80;;;9.90;99.90;;;;;;5045500;28;20053;-94
2022/06/06 01:36:37;;;;;;;3.83;3.20;;;9.90;99.90;;;;;;5052391;28;20037;-93
2022/06/06 01:39:07;;;;;;;3.63;2.80;;;9.90;99.90;;;;;;5050898;28;20045;-93
2022/06/06 01:41:47;;;;;;;6.60;3.20;;;9.90;99.90;;;;;;5055468;28;20034;-94
2022/06/06 01:44:12;;;;;;;4.80;2.97;;;9.90;99.90;;;;;;5054244;28;20037;-94
2022/06/06 01:46:38;;;;;;;6.40;3.10;;;9.90;99.90;;;;;;5050947;28;20059;-94
2022/06/06 01:49:09;;;;;;;7.95;3.30;;;9.90;99.90;;;;;;5047488;28;20052;-94
2022/06/06 01:51:35;;;;;;;6.25;3.40;;;9.90;99.90;;;;;;5041745;28;20081;-94
2022/06/06 01:54:01;;;;;;;5.65;3.58;;;9.90;99.90;;;;;;5039907;28;20030;-95
2022/06/06 01:56:31;;;;;;;4.20;3.13;;;9.90;99.90;;;;;;5042031;28;20025;-94
2022/06/06 01:58:58;;;;;;;5.80;3.53;;;9.80;99.90;;;;;;5044188;28;20123;-94
2022/06/06 02:01:24;;;;;;;8.32;3.83;;;9.80;99.90;;;;;;5041889;28;20056;-94
2022/06/06 02:03:49;;;;;;;4.78;3.55;;;9.80;99.90;;;;;;5042517;28;20033;-95
2022/06/06 02:06:15;;;;;;;4.55;3.33;;;9.80;99.90;;;;;;5038121;28;20471;-94
2022/06/06 02:08:42;;;;;;;3.78;3.10;;;9.80;99.90;;;;;;5036776;28;20032;-93
2022/06/06 02:11:09;;;;;;;8.60;3.58;;;9.80;99.90;;;;;;5038193;28;20021;-93
2022/06/06 02:13:35;;;;;;;5.63;3.72;;;9.80;99.90;;;;;;5040163;28;20029;-94
2022/06/06 02:16:02;;;;;;;4.20;3.47;;;9.70;99.90;;;;;;5038201;28;20061;-92
2022/06/06 02:18:28;;;;;;;4.63;3.00;;;9.70;99.90;;;;;;5045106;28;20048;-94
2022/06/06 02:20:55;;;;;;;6.70;3.30;;;9.80;99.90;;;;;;5045509;28;20036;-93
2022/06/06 02:23:21;;;;;;;4.60;3.13;;;9.70;99.90;;;;;;5041100;28;20064;-92
2022/06/06 02:25:47;;;;;;;5.47;3.85;;;9.80;99.90;;;;;;5038480;28;20197;-93
2022/06/06 02:28:15;;;;;;;4.93;3.22;;;9.70;99.90;;;;;;5035979;28;20033;-92
2022/06/06 02:30:41;;;;;;;4.85;3.50;;;9.70;99.90;;;;;;5036322;28;20455;-93
2022/06/06 02:33:07;;;;;;;4.63;3.65;;;9.70;99.90;;;;;;5039477;28;20033;-93
2022/06/06 02:35:39;;;;;;;5.15;3.33;;;9.70;99.90;;;;;;5040848;28;20030;-93
2022/06/06 02:38:05;;;;;;;6.32;3.70;;;9.70;99.90;;;;;;5041887;28;20083;-94
2022/06/06 02:40:31;;;;;;;6.40;3.47;;;9.70;99.90;;;;;;5040214;28;20057;-94
2022/06/06 02:42:56;;;;;;;5.60;3.90;;;9.70;99.90;;;;;;5046107;28;20092;-94
2022/06/06 02:45:22;;;;;;;7.05;3.67;;;9.70;99.90;;;;;;5049392;28;20125;-94
2022/06/06 02:47:55;;;;;;;6.75;3.45;;;9.60;99.90;;;;;;5043238;28;20025;-93
2022/06/06 02:50:25;;;;;;;5.65;3.80;;;9.70;99.90;;;;;;5042888;28;20032;-92
2022/06/06 02:52:51;;;;;;;6.55;4.18;;;9.70;99.90;;;;;;5042662;28;20029;-95
2022/06/06 02:55:16;;;;;;;5.63;3.20;;;9.60;99.90;;;;;;5044971;28;20044;-93
2022/06/06 02:57:46;;;;;;;5.25;3.70;;;9.60;99.90;;;;;;5047418;28;20054;-95
2022/06/06 03:00:15;;;;;;;8.93;3.75;;;9.60;99.90;;;;;;5040553;28;20246;-94
2022/06/06 03:02:41;;;;;;;6.65;4.00;;;9.60;99.90;;;;;;5041104;28;20024;-94
2022/06/06 03:05:08;;;;;;;6.65;3.85;;;9.60;99.90;;;;;;5040598;28;20049;-93
2022/06/06 03:07:55;;;;;;;5.15;4.40;;;9.60;99.90;;;;;;5044153;28;20028;-94
2022/06/06 03:10:27;;;;;;;4.60;3.72;;;9.60;99.90;;;;;;5044316;28;20140;-95
2022/06/06 03:13:04;;;;;;;6.97;4.43;;;9.60;99.90;;;;;;5042311;28;20077;-94
2022/06/06 03:22:10;;;;;;;7.95;4.35;;;9.60;99.90;;;;;;5038487;28;20029;-93
2022/06/06 03:25:03;;;;;;;7.93;4.47;;;9.60;99.90;;;;;;5050322;28;20029;-93
2022/06/06 03:27:32;;;;;;;5.57;3.78;;;9.50;99.90;;;;;;5047251;28;20022;-94
2022/06/06 03:30:09;;;;;;;6.63;3.78;;;9.50;99.90;;;;;;5047017;28;20033;-94
2022/06/06 03:33:00;;;;;;;7.45;4.05;;;9.50;99.90;;;;;;5052512;28;20100;-95
2022/06/06 03:35:36;;;;;;;4.57;3.03;;;9.50;99.90;;;;;;5054055;28;20025;-94
2022/06/06 03:38:11;;;;;;;4.53;2.80;;;9.50;99.90;;;;;;5049633;28;20033;-94
2022/06/06 03:40:55;;;;;;;5.63;2.97;;;9.50;99.90;;;;;;5053574;28;20041;-95
2022/06/06 03:43:29;;;;;;;5.30;3.78;;;9.50;99.90;;;;;;5056516;28;20041;-93
2022/06/06 03:46:07;;;;;;;5.05;3.08;;;9.40;99.90;;;;;;5055391;28;20053;-95
2022/06/06 03:48:58;;;;;;;5.57;2.88;;;9.40;99.90;;;;;;5054487;28;20049;-93
2022/06/06 03:52:06;;;;;;;4.75;2.67;;;9.40;99.90;;;;;;5052733;28;20101;-94
2022/06/06 03:54:34;;;;;;;4.03;2.53;;;9.40;99.90;;;;;;5044417;28;20045;-95
2022/06/06 03:57:23;;;;;;;8.15;3.13;;;9.30;99.90;;;;;;5047360;28;20029;-94
2022/06/06 03:59:54;;;;;;;5.05;2.80;;;9.30;99.90;;;;;;5049929;28;20037;-95
2022/06/06 04:02:22;;;;;;;;;;;9.30;99.90;;;;;;5045535;28;20063;-94
2022/06/06 04:04:49;;;;;;;4.63;2.67;;;9.30;99.90;;;;;;5046470;28;19909;-95
2022/06/06 04:07:16;;;;;;;4.35;2.72;;;9.30;99.90;;;;;;5051948;28;20024;-92
2022/06/06 04:09:42;;;;;;;5.03;3.20;;;9.30;99.90;;;;;;5050163;28;20096;-93
2022/06/06 04:12:52;;;;;;;5.05;3.15;;;9.30;99.90;;;;;;5053923;28;20048;-93
2022/06/06 04:15:39;;;;;;;4.00;3.13;;;9.30;99.90;;;;;;4978587;28;20118;-94
2022/06/06 04:18:17;;;;;;;4.40;2.90;;;9.30;99.90;;;;;;4992766;28;20043;-93
2022/06/06 04:21:19;;;;;;;3.90;3.50;;;9.30;99.90;;;;;;4985359;28;20029;-94
2022/06/06 04:23:50;;;;;;;5.25;2.70;;;9.30;99.90;;;;;;4986844;28;20037;-94
2022/06/06 04:26:22;;;;;;;;;;;9.30;99.90;;;;;;4987786;28;20037;-94
2022/06/06 04:29:25;;;;;;;3.33;2.65;;;9.30;99.90;;;;;;4993600;28;19981;-95
2022/06/06 04:32:05;;;;;;;4.57;2.75;;;9.30;99.90;;;;;;4984911;28;20544;-94
2022/06/06 04:35:00;;;;;;;4.85;2.75;;;9.30;99.90;;;;;;4957227;28;20055;-94
2022/06/06 04:37:43;;;;;;;4.97;2.95;;;9.30;99.90;;;;;;4951069;29;20038;-94
2022/06/06 04:40:39;;;;;;;5.40;3.33;;;9.30;99.90;;;;;;4954270;29;20051;-93
2022/06/06 04:43:33;;;;;;;4.82;3.05;;;9.20;99.90;;;;;;4970792;29;20026;-93
2022/06/06 04:46:15;;;;;;;3.13;2.72;;;9.20;99.90;;;;;;4953307;29;20046;-94
2022/06/06 04:48:44;;;;;;;5.47;2.65;;;9.20;99.90;;;;;;4952716;29;20039;-94
2022/06/06 04:51:15;;;;;;;2.95;2.42;;;9.20;99.90;;;;;;5007448;28;20041;-95
2022/06/06 04:53:49;;;;;;;3.35;2.80;;;9.20;99.90;;;;;;5063840;28;20037;-94
2022/06/06 04:56:20;;;;;;;4.30;2.58;;;9.20;99.90;;;;;;5034519;28;20053;-95
2022/06/06 04:58:49;;;;;;;7.22;2.75;;;9.30;99.90;;;;;;5066494;28;20026;-94
2022/06/06 05:01:15;;;;;;;9.05;2.92;;;9.30;99.90;;;;;;5034428;28;20025;-95
2022/06/06 05:03:41;;;;;;;6.20;3.17;;;9.30;99.90;;;;;;5068078;28;20093;-94
2022/06/06 05:06:38;;;;;;;4.80;3.17;;;9.30;99.90;;;;;;5067448;28;20088;-94
2022/06/06 05:09:19;;;;;;;4.25;2.83;;;9.30;99.90;;;;;;5033375;28;20066;-94
2022/06/06 05:11:54;;;;;;;5.40;3.25;;;9.40;99.90;;;;;;5032518;28;20018;-94
2022/06/06 05:14:54;;;;;;;3.88;2.92;;;9.40;99.90;;;;;;5031804;28;20061;-93
2022/06/06 05:17:49;;;;;;;6.18;3.25;;;9.40;99.90;;;;;;5035793;28;20029;-93
2022/06/06 05:20:25;;;;;;;5.88;3.30;;;9.30;99.90;;;;;;5031836;28;20045;-95
2022/06/06 05:23:09;;;;;;;6.53;3.65;;;9.40;99.90;;;;;;5034118;28;20068;-94
2022/06/06 05:25:59;;;;;;;7.80;3.88;;;9.40;99.90;;;;;;5033652;28;20057;-94
2022/06/06 05:28:54;;;;;;;6.05;3.45;;;9.40;99.90;;;;;;5032478;28;20034;-94
2022/06/06 05:31:43;;;;;;;8.60;3.85;;;9.40;99.90;;;;;;5064022;28;20057;-93
2022/06/06 05:34:17;;;;;;;8.85;3.60;;;9.50;99.90;;;;;;4997828;28;20033;-95
2022/06/06 05:36:56;;;;;;;8.55;3.67;;;9.50;99.90;;;;;;5068973;28;20026;-95
2022/06/06 05:39:59;;;;;;;5.00;3.72;;;9.50;99.90;;;;;;5068948;28;20070;-93
2022/06/06 05:43:05;;;;;;;4.88;3.92;;;9.50;99.90;;;;;;5034340;28;20052;-94
2022/06/06 05:45:36;;;;;;;4.43;3.58;;;9.60;99.90;;;;;;5011281;28;20022;-95
2022/06/06 05:48:26;;;;;;;5.53;3.85;;;9.60;99.90;;;;;;5034990;28;20038;-94
2022/06/06 05:50:59;;;;;;;5.57;4.07;;;9.60;99.90;;;;;;5035862;28;20022;-95
2022/06/06 05:53:51;;;;;;;5.45;3.72;;;9.60;99.90;;;;;;5035183;28;20030;-93
2022/06/06 05:56:19;;;;;;;5.60;3.50;;;9.60;99.90;;;;;;5034934;28;20030;-94
2022/06/06 05:59:19;;;;;;;7.55;3.67;;;9.60;99.90;;;;;;5033780;28;20061;-95
2022/06/06 06:02:39;;;;;;;5.77;3.77;;;9.60;99.90;;;;;;5033845;28;20038;-93
2022/06/06 06:05:11;;;;;;;5.25;3.30;;;9.60;99.90;;;;;;4958962;29;20031;-92
2022/06/06 06:08:02;;;;;;;7.00;3.55;;;9.60;99.90;;;;;;4975319;28;20051;-95
2022/06/06 06:10:50;;;;;;;;;;;9.70;99.90;;;;;;4976991;28;20115;-95
2022/06/06 06:14:00;;;;;;;5.60;3.72;;;9.70;99.90;;;;;;4963523;29;19921;-95
2022/06/06 06:16:31;;;;;;;9.52;4.20;;;9.70;99.90;;;;;;4969700;28;20043;-93
2022/06/06 06:19:08;;;;;;;7.25;4.45;;;9.70;99.90;;;;;;4962824;28;20027;-95
2022/06/06 06:21:45;;;;;;;7.72;3.92;;;9.80;99.90;;;;;;4962681;29;20023;-96
2022/06/06 06:24:20;;;;;;;7.50;4.43;;;9.80;99.90;;;;;;4963639;28;20025;-92
2022/06/06 06:26:48;;;;;;;6.00;4.45;;;9.80;99.90;;;;;;4979967;28;20098;-93
2022/06/06 06:29:14;;;;;;;6.68;3.75;;;9.80;99.90;;;;;;4963186;28;20019;-94
2022/06/06 06:32:02;;;;;;;6.60;3.65;;;9.80;99.90;;;;;;4971540;28;20141;-94
2022/06/06 06:34:55;;;;;;;7.15;4.45;;;9.80;99.90;;;;;;4978019;28;20062;-93
2022/06/06 06:37:47;;;;;;;7.47;4.00;;;9.90;99.90;;;;;;4976469;28;20022;-95
2022/06/06 06:40:47;;;;;;;6.22;3.53;;;9.90;99.90;;;;;;5050232;28;20053;-96
2022/06/06 06:46:03;;;;;;;6.32;4.00;;;9.90;99.90;;;;;;5239303;22;20067;-94
2022/06/06 06:48:42;;;;;;;8.35;3.92;;;9.90;99.90;;;;;;5058444;28;20040;-96
2022/06/06 06:51:44;;;;;;;11.10;4.22;;;10.00;99.90;;;;;;5058748;28;20040;-96
2022/06/06 06:54:22;;;;;;;6.22;3.65;;;10.00;99.90;;;;;;5051179;28;20128;-94
2022/06/06 06:56:58;;;;;;;10.43;3.95;;;10.00;99.90;;;;;;5059131;28;20009;-93
2022/06/06 06:59:38;;;;;;;4.43;3.33;;;10.00;99.90;;;;;;5055527;28;20124;-95
2022/06/06 07:08:41;;;;;;;7.38;3.85;;;10.10;99.90;;;;;;4954373;29;20099;-94
2022/06/06 07:11:25;;;;;;;6.47;3.58;;;10.10;99.90;;;;;;4937672;29;20099;-94
2022/06/06 07:13:54;;;;;;;4.78;3.40;;;10.10;99.90;;;;;;4943961;29;20044;-94
2022/06/06 07:16:26;;;;;;;7.38;3.45;;;10.10;99.90;;;;;;4953310;29;20036;-94
2022/06/06 07:19:10;;;;;;;6.65;2.92;;;10.20;99.90;;;;;;4953622;29;20028;-94
2022/06/06 07:21:38;;;;;;;3.55;2.63;;;10.20;99.90;;;;;;4951049;29;20035;-93
2022/06/06 07:24:07;;;;;;;3.60;2.50;;;10.20;99.90;;;;;;4932033;29;20027;-95
2022/06/06 07:26:38;;;;;;;4.28;2.17;;;10.20;99.90;;;;;;4931717;29;20020;-94
2022/06/06 07:29:06;;;;;;;3.55;2.50;;;10.20;99.90;;;;;;4930709;29;20036;-95
2022/06/06 07:32:06;;;;;;;3.00;2.28;;;10.20;99.90;;;;;;4932725;29;20043;-95
2022/06/06 07:35:06;;;;;;;4.40;2.30;;;10.20;99.90;;;;;;4934145;29;20072;-94
2022/06/06 07:37:36;;;;;;;3.08;2.58;;;10.30;99.90;;;;;;4940848;29;20087;-94
2022/06/06 07:40:14;;;;;;;4.40;2.85;;;10.30;99.90;;;;;;4950057;29;20042;-93
2022/06/06 07:43:17;;;;;;;4.47;2.45;;;10.30;99.90;;;;;;4996689;28;20124;-95
2022/06/06 07:45:48;;;;;;;3.15;2.60;;;10.40;99.90;;;;;;5025792;28;20053;-94
2022/06/06 07:48:42;;;;;;;3.63;2.70;;;10.40;99.90;;;;;;5028975;28;20033;-95
2022/06/06 07:51:32;;;;;;;4.53;3.05;;;10.50;99.90;;;;;;5031845;28;20066;-96
2022/06/06 07:54:04;;;;;;;;;;;10.50;99.90;;;;;;5049874;28;20485;-95
2022/06/06 07:56:40;;;;;;;2.75;2.45;;;10.60;99.90;;;;;;5027316;28;19912;-94
2022/06/06 07:59:35;;;;;;;2.72;2.28;;;10.60;99.90;;;;;;5024969;28;20018;-94
2022/06/06 08:02:28;;;;;;;6.70;3.25;;;10.70;99.90;;;;;;5034610;28;20033;-94
2022/06/06 08:05:26;;;;;;;6.53;3.40;;;10.70;99.90;;;;;;5031901;28;20021;-94
2022/06/06 08:08:28;;;;;;;6.32;2.83;;;10.80;99.90;;;;;;5037404;28;20028;-94
2022/06/06 08:10:55;;;;;;;4.47;2.80;;;10.80;99.90;;;;;;5014992;28;20033;-95
2022/06/06 08:13:25;;;;;;;4.82;2.40;;;10.90;99.90;;;;;;5036441;28;20030;-93
2022/06/06 08:16:03;;;;;;;4.25;3.10;;;10.90;99.90;;;;;;5031712;28;20041;-94
2022/06/06 08:18:48;;;;;;;5.00;2.80;;;11.00;99.90;;;;;;5026156;28;20033;-95
2022/06/06 08:21:51;;;;;;;3.70;2.63;;;11.10;99.90;;;;;;5021996;28;20018;-95
2022/06/06 08:24:26;;;;;;;4.35;2.97;;;11.10;99.90;;;;;;5021641;28;20081;-96
2022/06/06 08:26:55;;;;;;;6.10;2.75;;;11.20;99.90;;;;;;5016008;28;20033;-95
2022/06/06 08:29:22;;;;;;;5.25;3.15;;;11.30;99.90;;;;;;5021833;28;20017;-94
2022/06/06 08:31:51;;;;;;;6.30;3.53;;;11.30;99.90;;;;;;5018183;28;20112;-92
2022/06/06 08:34:37;;;;;;;5.97;2.80;;;11.40;99.90;;;;;;5018663;28;20395;-94
2022/06/06 08:43:37;;;;;;;4.90;3.00;;;11.60;99.90;;;;;;5545596;22;20041;-95
2022/06/06 08:46:28;;;;;;;6.35;3.00;;;11.70;99.90;;;;;;5038771;28;20052;-95
2022/06/06 08:52:51;;;;;;;5.97;3.40;;;11.80;99.90;;;;;;4952423;29;20121;-94
2022/06/06 08:55:38;;;;;;;4.75;3.03;;;11.90;99.90;;;;;;4957500;29;20174;-95
2022/06/06 08:58:31;;;;;;;4.20;2.80;;;11.90;99.90;;;;;;4940555;29;20122;-95
2022/06/06 09:01:32;;;;;;;4.78;2.10;;;11.90;99.90;;;;;;4964436;29;20035;-94
2022/06/06 09:04:16;;;;;;;3.72;2.20;;;12.00;99.90;;;;;;4921486;29;20036;-93
2022/06/06 09:06:56;;;;;;;3.28;2.00;;;12.10;99.90;;;;;;4937305;29;20017;-93
2022/06/06 09:10:07;;;;;;;5.07;2.83;;;12.10;99.90;;;;;;4935068;29;20032;-94
2022/06/06 09:13:04;;;;;;;5.65;2.38;;;12.10;99.90;;;;;;4950488;29;20043;-93
2022/06/06 09:15:37;;;;;;;3.28;2.05;;;12.10;99.90;;;;;;4947115;29;20264;-95
2022/06/06 09:18:08;;;;;;;4.63;2.22;;;12.10;99.90;;;;;;4909106;29;20028;-94
2022/06/06 09:20:48;;;;;;;3.88;2.25;;;12.10;99.90;;;;;;4919360;29;20031;-93
2022/06/06 09:23:47;;;;;;;6.88;2.55;;;12.10;99.90;;;;;;4923523;29;20051;-93
2022/06/06 09:26:45;;;;;;;4.80;2.50;;;12.10;99.90;;;;;;4930603;29;20087;-93
2022/06/06 09:29:23;;;;;;;4.18;2.53;;;12.10;99.90;;;;;;4987578;28;20030;-94
2022/06/06 09:32:01;;;;;;;5.70;2.70;;;12.10;99.90;;;;;;4985519;28;20066;-92
2022/06/06 09:34:42;;;;;;;6.72;2.92;;;12.10;99.90;;;;;;4985821;28;20048;-93
2022/06/06 09:37:26;;;;;;;;;;;12.10;99.90;;;;;;4994287;28;20033;-93
2022/06/06 09:40:22;;;;;;;2.60;2.40;;;12.00;99.90;;;;;;5003937;28;19912;-92
2022/06/06 09:43:13;;;;;;;2.97;2.50;;;12.00;99.90;;;;;;5014650;28;20046;-93
2022/06/06 09:46:13;;;;;;;3.65;2.30;;;12.00;99.90;;;;;;5016739;28;20044;-93
2022/06/06 09:48:42;;;;;;;4.85;2.60;;;12.00;99.90;;;;;;5019247;28;20029;-92
2022/06/06 09:51:29;;;;;;;3.03;2.50;;;12.00;99.90;;;;;;5019108;28;20029;-92
2022/06/06 10:00:41;;;;;;;3.97;2.30;;;12.10;99.90;;;;;;5034294;28;20040;-93
2022/06/06 10:03:34;;;;;;;5.45;2.28;;;12.10;99.90;;;;;;5019038;28;20028;-93
2022/06/06 10:06:04;;;;;;;2.95;2.53;;;12.10;99.90;;;;;;5018975;28;20033;-92
2022/06/06 10:08:58;;;;;;;3.22;2.50;;;12.20;99.90;;;;;;5019542;28;20413;-93
2022/06/06 10:11:45;;;;;;;4.47;2.33;;;12.20;99.90;;;;;;5016519;28;20084;-92
2022/06/06 10:14:23;;;;;;;3.50;2.35;;;12.20;99.90;;;;;;5016984;28;20389;-93
2022/06/06 10:17:19;;;;;;;4.93;2.50;;;12.30;99.90;;;;;;5011323;28;20104;-92
2022/06/06 10:20:29;;;;;;;4.22;2.85;;;12.30;99.90;;;;;;5016000;28;20025;-94
2022/06/06 10:23:03;;;;;;;3.83;2.90;;;12.40;99.90;;;;;;5028834;28;20025;-93
2022/06/06 10:26:03;;;;;;;6.05;3.42;;;12.50;99.90;;;;;;5020969;28;20029;-93
2022/06/06 10:28:56;;;;;;;5.97;3.83;;;12.50;99.90;;;;;;5020747;28;20038;-93
2022/06/06 10:31:36;;;;;;;5.53;3.40;;;12.60;99.90;;;;;;5036250;28;20022;-92
2022/06/06 10:34:20;;;;;;;7.45;3.88;;;12.60;99.90;;;;;;5036234;28;20056;-92
2022/06/06 10:37:19;;;;;;;5.05;3.00;;;12.60;99.90;;;;;;5019118;28;20026;-90
2022/06/06 10:39:45;;;;;;;3.78;2.88;;;12.60;99.90;;;;;;5003463;28;20099;-93
2022/06/06 10:42:48;;;;;;;7.60;3.13;;;12.60;99.90;;;;;;5019257;28;20475;-93
2022/06/06 10:45:29;;;;;;;3.05;2.70;;;12.50;99.90;;;;;;4999643;28;20523;-93
2022/06/06 10:48:16;;;;;;;6.05;2.78;;;12.60;99.90;;;;;;4999915;28;20030;-93
2022/06/06 10:54:43;;;;;;;3.20;2.50;;;12.60;99.90;;;;;;5011775;28;20100;-94
2022/06/06 10:57:34;;;;;;;4.25;2.35;;;12.60;99.90;;;;;;5005021;28;20029;-93
2022/06/06 11:00:43;;;;;;;4.38;2.50;;;12.60;99.90;;;;;;5009148;28;20034;-94
2022/06/06 11:03:41;;;;;;;5.05;2.80;;;12.70;99.90;;;;;;5008249;28;20949;-91
2022/06/06 11:06:51;;;;;;;2.47;2.25;;;12.70;99.90;;;;;;5004858;28;20017;-95
2022/06/06 11:09:56;;;;;;;3.17;2.38;;;12.70;99.90;;;;;;5003080;28;20160;-93
2022/06/06 11:13:00;;;;;;;4.25;2.90;;;12.80;99.90;;;;;;4999865;28;20026;-93
2022/06/06 11:15:41;;;;;;;4.68;2.53;;;12.80;99.90;;;;;;5001793;28;20042;-94
2022/06/06 11:18:13;;;;;;;7.93;3.15;;;12.90;99.90;;;;;;5001993;28;20026;-95
2022/06/06 11:20:58;;;;;;;3.85;2.90;;;13.00;99.90;;;;;;5007965;28;20033;-95
2022/06/06 11:23:38;;;;;;;3.97;3.08;;;13.00;99.90;;;;;;5004888;28;20034;-95
2022/06/06 11:26:47;;;;;;;5.28;3.20;;;13.00;99.90;;;;;;5032354;28;20046;-93
2022/06/06 11:29:48;;;;;;;2.88;2.45;;;13.10;99.90;;;;;;5008206;28;20101;-94
2022/06/06 11:32:50;;;;;;;5.03;2.88;;;13.10;99.90;;;;;;4973270;28;20110;-94
2022/06/06 11:35:36;;;;;;;4.30;3.13;;;13.10;99.90;;;;;;4967760;28;20035;-94
2022/06/06 11:38:34;;;;;;;7.95;3.67;;;13.10;99.90;;;;;;4956780;29;20150;-93
2022/06/06 11:41:41;;;;;;;7.03;3.58;;;13.10;99.90;;;;;;4923812;29;20079;-94
2022/06/06 11:44:32;;;;;;;11.05;4.03;;;13.10;99.90;;;;;;4943977;29;20079;-93
2022/06/06 11:47:34;;;;;;;8.25;4.03;;;13.10;99.90;;;;;;4959774;29;20008;-94
2022/06/06 11:50:23;;;;;;;10.50;4.10;;;13.10;99.90;;;;;;4961086;29;20366;-93
2022/06/06 11:53:11;;;;;;;5.88;3.92;;;13.00;99.90;;;;;;4975959;28;20031;-92
2022/06/06 11:56:09;;;;;;;8.27;4.47;;;13.00;99.90;;;;;;4967296;29;20090;-92
2022/06/06 11:58:42;;;;;;;6.13;3.83;;;13.00;99.90;;;;;;4960118;28;20046;-93
2022/06/06 12:01:52;;;;;;;7.25;4.47;;;13.00;99.90;;;;;;4969418;29;20066;-93
2022/06/06 12:04:25;;;;;;;7.60;4.05;;;13.00;99.90;;;;;;4922584;29;20131;-93
2022/06/06 12:07:14;;;;;;;7.93;5.00;;;13.00;99.90;;;;;;4959069;29;20055;-93
2022/06/06 12:10:26;;;;;;;9.18;4.05;;;12.90;99.90;;;;;;4975614;28;20038;-94
2022/06/06 12:13:34;;;;;;;8.20;4.30;;;12.90;99.90;;;;;;4994459;28;20115;-93
2022/06/06 12:16:24;;;;;;;13.20;4.47;;;12.90;99.90;;;;;;4982823;28;20084;-93
2022/06/06 12:19:19;;;;;;;7.40;3.97;;;12.80;99.90;;;;;;4981072;28;20612;-95
2022/06/06 12:22:24;;;;;;;7.72;4.55;;;12.80;99.90;;;;;;5011156;28;20084;-93
2022/06/06 12:25:27;;;;;;;7.63;4.45;;;12.80;99.90;;;;;;5000439;28;20035;-94
2022/06/06 12:28:18;;;;;;;8.18;4.28;;;12.80;99.90;;;;;;5014596;28;20061;-92
2022/06/06 12:30:55;;;;;;;;;;;12.80;99.90;;;;;;4998487;28;20038;-93
2022/06/06 12:33:57;;;;;;;6.28;3.70;;;12.80;99.90;;;;;;5015416;28;19924;-91
2022/06/06 12:36:31;;;;;;;7.50;3.85;;;12.80;99.90;;;;;;4997319;28;20511;-92
2022/06/06 12:39:23;;;;;;;10.02;4.28;;;12.80;99.90;;;;;;5013883;28;20034;-93
2022/06/06 12:42:09;;;;;;;6.18;3.72;;;12.80;99.90;;;;;;5013672;28;20057;-92
2022/06/06 12:44:57;;;;;;;7.63;4.57;;;12.80;99.90;;;;;;5014497;28;20072;-93
2022/06/06 12:47:54;;;;;;;9.07;5.38;;;12.90;99.90;;;;;;5004790;28;20045;-93
2022/06/06 12:51:10;;;;;;;8.90;5.93;;;13.00;99.90;;;;;;5014593;28;20042;-94
2022/06/06 12:54:17;;;;;;;10.00;4.90;;;13.10;99.90;;;;;;4916328;29;20111;-92
2022/06/06 12:56:57;;;;;;;10.45;5.38;;;13.10;99.90;;;;;;4916294;29;20115;-92
2022/06/06 13:00:12;;;;;;;12.65;5.40;;;13.20;99.90;;;;;;4900851;29;20088;-92
2022/06/06 13:03:08;;;;;;;8.43;5.28;;;13.30;99.90;;;;;;4901127;29;20051;-92
2022/06/06 13:05:40;;;;;;;6.90;5.10;;;13.40;99.90;;;;;;4935467;29;20131;-92
2022/06/06 13:08:37;;;;;;;9.35;5.00;;;13.50;99.90;;;;;;4934670;29;20039;-93
2022/06/06 13:11:40;;;;;;;9.07;5.38;;;13.50;99.90;;;;;;4917660;29;20035;-92
2022/06/06 13:14:45;;;;;;;10.60;5.32;;;13.60;99.90;;;;;;4935171;29;20497;-93
2022/06/06 13:17:49;;;;;;;7.63;4.88;;;13.70;99.90;;;;;;4901040;29;20040;-94
2022/06/06 13:20:23;;;;;;;6.53;5.15;;;13.70;99.90;;;;;;4918866;29;20040;-93
2022/06/06 13:23:15;;;;;;;9.70;5.45;;;13.70;99.90;;;;;;4923782;29;20032;-92
2022/06/06 13:26:29;;;;;;;8.90;5.40;;;13.70;99.90;;;;;;4924132;29;20286;-92
2022/06/06 13:29:04;;;;;;;7.43;4.85;;;13.80;99.90;;;;;;5021014;28;20037;-91
2022/06/06 13:32:05;;;;;;;6.97;5.07;;;13.80;99.90;;;;;;5004092;28;20476;-92
2022/06/06 13:35:20;;;;;;;9.43;5.85;;;13.80;99.90;;;;;;5008107;28;20042;-94
2022/06/06 13:38:25;;;;;;;6.97;5.30;;;13.80;99.90;;;;;;5014003;28;20060;-92
2022/06/06 13:41:14;;;;;;;9.55;5.30;;;13.80;99.90;;;;;;5015606;28;20053;-92
2022/06/06 13:46:45;;;;;;;11.68;5.50;;;14.00;99.90;;;;;;5200744;23;20056;-91
2022/06/06 13:52:48;;;;;;;9.13;5.43;;;14.50;99.90;;;;;;5083012;28;20535;-92
2022/06/06 13:55:35;;;;;;;10.95;5.50;;;14.80;99.90;;;;;;5070429;28;20401;-93
2022/06/06 13:58:39;;;;;;;7.78;5.00;;;14.90;99.90;;;;;;5061098;28;20028;-90
2022/06/06 14:01:45;;;;;;;7.38;4.93;;;15.10;99.90;;;;;;5064342;28;20021;-93
2022/06/06 14:05:05;;;;;;;9.32;5.88;;;15.10;99.90;;;;;;4981079;28;20026;-92
2022/06/06 14:07:48;;;;;;;7.43;5.20;;;15.10;99.90;;;;;;4923414;29;20035;-93
2022/06/06 14:10:18;;;;;;;15.23;7.82;;;15.10;99.90;;;;;;4923084;29;20039;-92
2022/06/06 14:13:11;;;;;;;12.15;7.72;;;15.00;99.90;;;;;;4922615;29;20042;-92
2022/06/06 14:15:47;;;;;;;14.82;8.40;;;14.90;99.90;;;;;;4922402;29;20044;-92
2022/06/06 14:18:26;;;;;;;10.65;8.15;;;14.80;99.90;;;;;;4922299;29;20039;-91
2022/06/06 14:20:55;;;;;;;13.98;8.65;;;14.80;99.90;;;;;;4922504;29;20072;-92
2022/06/06 14:23:36;;;;;;;12.05;7.97;;;14.80;99.90;;;;;;4938248;29;20036;-92
2022/06/06 14:26:06;;;;;;;13.88;6.75;;;14.70;99.90;;;;;;4922856;29;20028;-92
2022/06/06 14:28:35;;;;;;;8.98;6.30;;;14.70;99.90;;;;;;4926098;29;20043;-91
2022/06/06 14:31:05;;;;;;;10.32;6.53;;;14.60;99.90;;;;;;4921898;29;20094;-92
2022/06/06 14:33:35;;;;;;;7.33;6.10;;;14.60;99.90;;;;;;4922211;29;20496;-92
2022/06/06 14:36:14;;;;;;;8.25;5.45;;;14.60;99.90;;;;;;4922334;29;20272;-93
2022/06/06 14:38:40;;;;;;;7.90;5.40;;;14.60;99.90;;;;;;4950378;28;20050;-92
2022/06/06 14:41:11;;;;;;;9.00;5.07;;;14.60;99.90;;;;;;4994276;28;20036;-91
2022/06/06 14:43:54;;;;;;;7.00;4.88;;;14.50;99.90;;;;;;5059679;28;20021;-91
2022/06/06 14:46:21;;;;;;;5.97;4.85;;;14.50;99.90;;;;;;5059851;28;20135;-92
2022/06/06 14:48:53;;;;;;;8.98;4.88;;;14.40;99.90;;;;;;5067333;28;20108;-93
2022/06/06 14:51:32;;;;;;;9.18;6.32;;;14.40;99.90;;;;;;5066228;28;20020;-91
2022/06/06 14:54:06;;;;;;;8.32;5.35;;;14.40;99.90;;;;;;5060601;28;20036;-94